Time;durP1;ratioP1;P1;durP2;ratioP2;P2;SDS_P1;SDS_P2;PMS_P1;PMS_P2;Temp;Humidity;BMP_temperature;BMP_pressure;BME280_temperature;BME280_humidity;BME280_pressure;Samples;Min_cycle;Max_cycle;Signal;HPM_P1;HPM_P2
2022/04/28 00:00:30;;;;;;;12.38;8.77;;;;;;;;;;5076659;28;20199;-71
2022/04/28 00:02:58;;;;;;;13.88;8.60;;;;;;;;;;5076700;28;20293;-71
2022/04/28 00:05:25;;;;;;;19.67;8.90;;;;;;;;;;5076426;28;20202;-71
2022/04/28 00:07:52;;;;;;;12.82;8.98;;;;;;;;;;5076305;28;20197;-71
2022/04/28 00:10:20;;;;;;;13.65;9.98;;;;;;;;;;5076675;28;20202;-71
2022/04/28 00:12:47;;;;;;;14.40;9.55;;;;;;;;;;5076484;28;20204;-71
2022/04/28 00:15:16;;;;;;;11.85;9.00;;;;;;;;;;5076356;28;20231;-71
2022/04/28 00:17:43;;;;;;;12.95;9.60;;;;;;;;;;5076437;28;20268;-71
2022/04/28 00:20:11;;;;;;;17.70;9.45;;;;;;;;;;5076336;28;20208;-71
2022/04/28 00:22:38;;;;;;;10.80;9.73;;;;;;;;;;5076482;28;20219;-71
2022/04/28 00:25:06;;;;;;;17.23;9.40;;;;;;;;;;5076172;28;20576;-71
2022/04/28 00:27:34;;;;;;;15.00;10.15;;;;;;;;;;5076269;28;20198;-71
2022/04/28 00:30:01;;;;;;;13.70;8.93;;;;;;;;;;5075892;28;20244;-71
2022/04/28 00:32:30;;;;;;;14.13;9.35;;;;;;;;;;5076029;28;20279;-71
2022/04/28 00:34:57;;;;;;;12.30;9.55;;;;;;;;;;5076092;28;20270;-71
2022/04/28 00:37:24;;;;;;;12.65;8.80;;;;;;;;;;5075730;28;20235;-71
2022/04/28 00:39:52;;;;;;;15.55;9.82;;;;;;;;;;5074769;28;20630;-71
2022/04/28 00:42:20;;;;;;;25.83;10.57;;;;;;;;;;5075920;28;20207;-71
2022/04/28 00:44:47;;;;;;;22.90;10.38;;;;;;;;;;5075918;28;20244;-71
2022/04/28 00:47:15;;;;;;;15.50;9.35;;;;;;;;;;5075993;28;20550;-71
2022/04/28 00:52:29;;;;;;;16.20;10.90;;;;;;;;;;5075602;28;20176;-71
2022/04/28 00:54:57;;;;;;;14.00;8.82;;;;;;;;;;5075367;28;20216;-71
2022/04/28 00:57:24;;;;;;;20.30;11.50;;;;;;;;;;5075470;28;20645;-71
2022/04/28 00:59:52;;;;;;;19.17;11.48;;;;;;;;;;5075571;28;20295;-71
2022/04/28 01:02:20;;;;;;;13.23;9.65;;;;;;;;;;5075441;28;20291;-72
2022/04/28 01:04:49;;;;;;;12.93;9.23;;;;;;;;;;5075207;28;20203;-71
2022/04/28 01:07:17;;;;;;;11.10;7.97;;;;;;;;;;5075427;28;20217;-71
2022/04/28 01:09:44;;;;;;;14.13;10.77;;;;;;;;;;5075414;28;20204;-72
2022/04/28 01:12:14;;;;;;;21.30;9.93;;;;;;;;;;5075233;28;20200;-71
2022/04/28 01:14:42;;;;;;;13.68;9.40;;;;;;;;;;5075283;28;20216;-72
2022/04/28 01:17:09;;;;;;;19.75;10.10;;;;;;;;;;5075382;28;20194;-72
2022/04/28 01:19:36;;;;;;;17.75;10.65;;;;;;;;;;5074937;28;20200;-71
2022/04/28 01:22:05;;;;;;;19.00;10.38;;;;;;;;;;5074769;28;20669;-71
2022/04/28 01:24:33;;;;;;;14.65;9.52;;;;;;;;;;5074830;28;20204;-71
2022/04/28 01:27:00;;;;;;;17.30;10.30;;;;;;;;;;5074722;28;20191;-71
2022/04/28 01:29:28;;;;;;;19.13;10.88;;;;;;;;;;5075474;28;20202;-72
2022/04/28 01:31:55;;;;;;;15.13;10.23;;;;;;;;;;5075337;28;20195;-72
2022/04/28 01:34:22;;;;;;;13.52;9.77;;;;;;;;;;5074611;28;20196;-72
2022/04/28 01:36:49;;;;;;;16.13;9.80;;;;;;;;;;5074538;28;20203;-71
2022/04/28 01:39:18;;;;;;;13.65;9.75;;;;;;;;;;5075017;28;20202;-72
2022/04/28 01:41:45;;;;;;;18.52;10.60;;;;;;;;;;5075097;28;20206;-72
2022/04/28 01:44:12;;;;;;;16.83;11.63;;;;;;;;;;5074676;28;20190;-72
2022/04/28 01:46:39;;;;;;;15.75;10.27;;;;;;;;;;5074291;28;20204;-71
2022/04/28 01:49:07;;;;;;;24.80;11.52;;;;;;;;;;5074823;28;20192;-72
2022/04/28 01:57:05;;;;;;;22.77;11.00;;;;;;;;;;5074209;28;20183;-71
2022/04/28 01:59:32;;;;;;;16.98;11.32;;;;;;;;;;5074691;28;20192;-71
2022/04/28 02:01:59;;;;;;;16.10;9.90;;;;;;;;;;5074275;28;20290;-71
2022/04/28 02:04:26;;;;;;;15.52;9.73;;;;;;;;;;5074568;28;20191;-71
2022/04/28 02:06:53;;;;;;;16.00;11.13;;;;;;;;;;5074186;28;20303;-71
2022/04/28 02:09:22;;;;;;;17.63;9.93;;;;;;;;;;5074516;28;20201;-71
2022/04/28 02:11:49;;;;;;;13.77;9.65;;;;;;;;;;5073817;28;20208;-71
2022/04/28 02:14:16;;;;;;;21.17;11.43;;;;;;;;;;5074353;28;20207;-72
2022/04/28 02:16:43;;;;;;;14.27;10.43;;;;;;;;;;5073672;28;20780;-71
2022/04/28 02:19:11;;;;;;;32.83;10.95;;;;;;;;;;5074356;28;20195;-72
2022/04/28 02:21:38;;;;;;;18.88;10.85;;;;;;;;;;5073703;28;20293;-71
2022/04/28 02:24:05;;;;;;;18.75;10.68;;;;;;;;;;5074047;28;20199;-71
2022/04/28 02:26:34;;;;;;;15.95;11.15;;;;;;;;;;5074315;28;20199;-71
2022/04/28 02:29:01;;;;;;;16.55;10.93;;;;;;;;;;5073564;28;20206;-71
2022/04/28 02:31:28;;;;;;;24.90;13.77;;;;;;;;;;5074012;28;20202;-71
2022/04/28 02:33:55;;;;;;;19.30;10.90;;;;;;;;;;5073858;28;20208;-71
2022/04/28 02:36:24;;;;;;;16.92;11.02;;;;;;;;;;5074097;28;20289;-71
2022/04/28 02:38:51;;;;;;;23.45;11.50;;;;;;;;;;5073248;28;20227;-72
2022/04/28 02:41:21;;;;;;;18.67;11.43;;;;;;;;;;5073885;28;20245;-72
2022/04/28 02:43:49;;;;;;;16.70;10.90;;;;;;;;;;5073329;28;20205;-71
2022/04/28 02:46:17;;;;;;;18.52;11.10;;;;;;;;;;5074451;28;20203;-71
2022/04/28 02:48:44;;;;;;;15.52;11.77;;;;;;;;;;5073600;28;20289;-72
2022/04/28 02:51:11;;;;;;;17.90;11.23;;;;;;;;;;5074280;28;20289;-71
2022/04/28 02:53:38;;;;;;;17.10;10.75;;;;;;;;;;5073401;28;20644;-71
2022/04/28 02:56:06;;;;;;;25.95;13.23;;;;;;;;;;5073511;28;20676;-71
2022/04/28 02:58:34;;;;;;;22.75;10.73;;;;;;;;;;5073736;28;20201;-71
2022/04/28 03:01:02;;;;;;;18.95;11.30;;;;;;;;;;5073272;28;20236;-72
2022/04/28 03:03:29;;;;;;;21.48;10.50;;;;;;;;;;5072955;28;20198;-71
2022/04/28 03:11:27;;;;;;;27.63;12.65;;;;;;;;;;5073365;28;20698;-71
2022/04/28 03:13:54;;;;;;;20.17;11.30;;;;;;;;;;5073383;28;20620;-71
2022/04/28 03:16:23;;;;;;;17.30;11.05;;;;;;;;;;5073372;28;20219;-72
2022/04/28 03:18:50;;;;;;;17.15;10.38;;;;;;;;;;5073037;28;20195;-72
2022/04/28 03:21:17;;;;;;;16.85;10.93;;;;;;;;;;5073499;28;20199;-72
2022/04/28 03:23:45;;;;;;;21.48;12.52;;;;;;;;;;5072974;28;20282;-71
2022/04/28 03:26:12;;;;;;;19.77;10.75;;;;;;;;;;5073135;28;20202;-71
2022/04/28 03:28:39;;;;;;;25.00;12.52;;;;;;;;;;5073674;28;20547;-72
2022/04/28 03:31:07;;;;;;;24.17;12.45;;;;;;;;;;5073381;28;20286;-71
2022/04/28 03:33:36;;;;;;;21.25;12.25;;;;;;;;;;5072849;28;20201;-71
2022/04/28 03:36:50;;;;;;;25.65;12.52;;;;;;;;;;5073209;28;20215;-71
2022/04/28 03:38:50;;;;;;;19.90;12.25;;;;;;;;;;5073276;28;20226;-71
2022/04/28 03:41:17;;;;;;;25.25;11.85;;;;;;;;;;5072908;28;20205;-71
2022/04/28 03:43:45;;;;;;;17.55;12.00;;;;;;;;;;5072798;28;20199;-71
2022/04/28 03:46:12;;;;;;;19.80;12.45;;;;;;;;;;5072960;28;20614;-72
2022/04/28 03:48:41;;;;;;;18.88;11.45;;;;;;;;;;5073205;28;20209;-72
2022/04/28 03:51:08;;;;;;;17.27;11.80;;;;;;;;;;5072747;28;20228;-72
2022/04/28 03:53:35;;;;;;;27.88;12.50;;;;;;;;;;5072880;28;20204;-71
2022/04/28 03:56:03;;;;;;;22.15;15.50;;;;;;;;;;5073446;28;20219;-71
2022/04/28 03:58:30;;;;;;;15.90;11.00;;;;;;;;;;5073145;28;20190;-72
2022/04/28 04:00:57;;;;;;;21.48;10.60;;;;;;;;;;5072739;28;20648;-70
2022/04/28 04:03:24;;;;;;;23.58;12.75;;;;;;;;;;5072926;28;20195;-70
2022/04/28 04:05:53;;;;;;;17.70;12.15;;;;;;;;;;5073341;28;20285;-70
2022/04/28 04:08:20;;;;;;;23.90;12.35;;;;;;;;;;5073108;28;20248;-70
2022/04/28 04:10:47;;;;;;;19.95;12.50;;;;;;;;;;5072309;28;20204;-70
2022/04/28 04:13:15;;;;;;;24.00;12.02;;;;;;;;;;5072580;28;20223;-70
2022/04/28 04:15:43;;;;;;;22.60;12.40;;;;;;;;;;5074844;28;20214;-70
2022/04/28 04:18:10;;;;;;;20.17;11.57;;;;;;;;;;5076335;28;20194;-70
2022/04/28 04:20:37;;;;;;;17.40;11.95;;;;;;;;;;5076377;28;20548;-69
2022/04/28 04:23:06;;;;;;;22.98;13.07;;;;;;;;;;5076523;28;20197;-70
2022/04/28 04:25:33;;;;;;;19.77;11.98;;;;;;;;;;5076279;28;20207;-70
2022/04/28 04:28:00;;;;;;;19.83;12.40;;;;;;;;;;5076947;28;20233;-70
2022/04/28 04:33:12;;;;;;;21.55;13.13;;;;;;;;;;5075958;28;20178;-70
2022/04/28 04:35:40;;;;;;;28.95;14.73;;;;;;;;;;5076061;28;20227;-70
2022/04/28 04:38:08;;;;;;;22.50;13.60;;;;;;;;;;5075865;28;20584;-70
2022/04/28 04:40:35;;;;;;;26.20;13.18;;;;;;;;;;5075836;28;20196;-70
2022/04/28 04:43:04;;;;;;;18.67;13.15;;;;;;;;;;5076057;28;20224;-70
2022/04/28 04:45:32;;;;;;;20.42;11.98;;;;;;;;;;5075739;28;20198;-70
2022/04/28 04:47:59;;;;;;;17.40;11.63;;;;;;;;;;5076184;28;20195;-70
2022/04/28 04:50:26;;;;;;;22.23;13.25;;;;;;;;;;5075865;28;20199;-70
2022/04/28 04:52:53;;;;;;;19.67;12.48;;;;;;;;;;5075814;28;20195;-70
2022/04/28 04:55:22;;;;;;;18.65;11.52;;;;;;;;;;5075330;28;20194;-70
2022/04/28 04:57:49;;;;;;;19.70;13.60;;;;;;;;;;5075338;28;20281;-70
2022/04/28 05:00:17;;;;;;;23.88;13.45;;;;;;;;;;5075197;28;20195;-70
2022/04/28 05:02:44;;;;;;;26.65;13.50;;;;;;;;;;5075488;28;20644;-70
2022/04/28 05:05:11;;;;;;;23.75;12.38;;;;;;;;;;5075455;28;20195;-70
2022/04/28 05:07:38;;;;;;;18.85;12.48;;;;;;;;;;5075811;28;20236;-71
2022/04/28 05:10:06;;;;;;;20.40;13.80;;;;;;;;;;5074983;28;20200;-70
2022/04/28 05:12:35;;;;;;;26.83;13.45;;;;;;;;;;5075426;28;20231;-70
2022/04/28 05:15:02;;;;;;;24.25;12.07;;;;;;;;;;5075454;28;20195;-70
2022/04/28 05:17:29;;;;;;;18.55;13.18;;;;;;;;;;5072971;28;20258;-70
2022/04/28 05:19:58;;;;;;;20.48;13.80;;;;;;;;;;5073051;28;20206;-70
2022/04/28 05:22:25;;;;;;;20.92;13.38;;;;;;;;;;5074080;28;20196;-66
2022/04/28 05:24:52;;;;;;;24.20;13.18;;;;;;;;;;5074639;28;20675;-68
2022/04/28 05:27:19;;;;;;;21.38;12.65;;;;;;;;;;5074402;28;20310;-68
2022/04/28 05:29:48;;;;;;;18.67;13.02;;;;;;;;;;5075127;28;20196;-68
2022/04/28 05:32:15;;;;;;;24.50;13.88;;;;;;;;;;5075026;28;20289;-68
2022/04/28 05:34:42;;;;;;;23.98;13.77;;;;;;;;;;5074588;28;20203;-68
2022/04/28 05:37:11;;;;;;;21.35;12.13;;;;;;;;;;5074475;28;20253;-68
2022/04/28 05:39:39;;;;;;;17.60;13.50;;;;;;;;;;5075519;28;20195;-68
2022/04/28 05:42:07;;;;;;;19.20;13.85;;;;;;;;;;5074780;28;20192;-68
2022/04/28 05:47:20;;;;;;;21.88;13.55;;;;;;;;;;5074768;28;20183;-68
2022/04/28 05:49:47;;;;;;;20.80;13.38;;;;;;;;;;5074566;28;20325;-68
2022/04/28 05:52:15;;;;;;;23.55;13.32;;;;;;;;;;5074580;28;20199;-68
2022/04/28 05:54:42;;;;;;;18.20;13.20;;;;;;;;;;5074501;28;20203;-68
2022/04/28 05:57:11;;;;;;;28.25;14.40;;;;;;;;;;5074463;28;20225;-68
2022/04/28 05:59:39;;;;;;;23.63;13.30;;;;;;;;;;5074225;28;20671;-68
2022/04/28 06:02:06;;;;;;;21.48;13.82;;;;;;;;;;5074734;28;20287;-68
2022/04/28 06:04:34;;;;;;;21.00;13.20;;;;;;;;;;5074041;28;20232;-68
2022/04/28 06:07:02;;;;;;;21.63;13.77;;;;;;;;;;5073942;28;20197;-68
2022/04/28 06:09:29;;;;;;;30.33;13.85;;;;;;;;;;5074415;28;20201;-68
2022/04/28 06:11:56;;;;;;;23.17;13.65;;;;;;;;;;5073879;28;20646;-68
2022/04/28 06:14:23;;;;;;;20.50;12.80;;;;;;;;;;5074233;28;20201;-68
2022/04/28 06:16:50;;;;;;;20.95;13.55;;;;;;;;;;5073599;28;20219;-68
2022/04/28 06:19:19;;;;;;;21.20;13.60;;;;;;;;;;5073810;28;20671;-68
2022/04/28 06:21:48;;;;;;;23.23;13.93;;;;;;;;;;5073682;28;20291;-69
2022/04/28 06:24:16;;;;;;;28.77;14.88;;;;;;;;;;5074055;28;20206;-68
2022/04/28 06:26:43;;;;;;;25.92;13.65;;;;;;;;;;5074068;28;20201;-68
2022/04/28 06:29:10;;;;;;;23.27;13.85;;;;;;;;;;5073638;28;20200;-68
2022/04/28 06:31:37;;;;;;;22.50;14.50;;;;;;;;;;5073446;28;20193;-68
2022/04/28 06:34:05;;;;;;;25.48;13.60;;;;;;;;;;5073606;28;20293;-69
2022/04/28 06:36:34;;;;;;;30.00;14.60;;;;;;;;;;5073490;28;20219;-68
2022/04/28 06:39:03;;;;;;;21.33;13.95;;;;;;;;;;5073319;28;20617;-68
2022/04/28 06:41:30;;;;;;;18.85;13.27;;;;;;;;;;5073670;28;20215;-68
2022/04/28 06:43:57;;;;;;;23.15;15.10;;;;;;;;;;5073364;28;20227;-69
2022/04/28 06:46:24;;;;;;;19.58;12.32;;;;;;;;;;5073720;28;20679;-68
2022/04/28 06:48:52;;;;;;;24.10;15.35;;;;;;;;;;5073166;28;20199;-68
2022/04/28 06:51:19;;;;;;;21.65;12.60;;;;;;;;;;5073754;28;20258;-68
2022/04/28 06:53:46;;;;;;;22.02;12.48;;;;;;;;;;5074030;28;20284;-69
2022/04/28 06:56:15;;;;;;;20.83;12.95;;;;;;;;;;5073196;28;20233;-68
2022/04/28 06:58:42;;;;;;;19.80;11.90;;;;;;;;;;5073564;28;20232;-68
2022/04/28 07:01:09;;;;;;;24.67;13.25;;;;;;;;;;5073438;28;20266;-69
2022/04/28 07:03:40;;;;;;;25.45;14.95;;;;;;;;;;5073508;28;20220;-69
2022/04/28 07:06:07;;;;;;;26.17;12.98;;;;;;;;;;5073171;28;20231;-68
2022/04/28 07:08:34;;;;;;;24.67;13.10;;;;;;;;;;5074198;28;20622;-68
2022/04/28 07:11:01;;;;;;;21.75;13.02;;;;;;;;;;5073311;28;20273;-68
2022/04/28 07:13:30;;;;;;;26.67;11.65;;;;;;;;;;5073603;28;20284;-68
2022/04/28 07:15:57;;;;;;;28.98;14.10;;;;;;;;;;5072896;28;20284;-68
2022/04/28 07:18:25;;;;;;;23.02;12.60;;;;;;;;;;5073461;28;20551;-68
2022/04/28 07:20:52;;;;;;;17.02;12.75;;;;;;;;;;5073722;28;20197;-68
2022/04/28 07:23:19;;;;;;;17.25;11.30;;;;;;;;;;5073060;28;20282;-68
2022/04/28 07:25:46;;;;;;;18.80;12.63;;;;;;;;;;5072926;28;20223;-68
2022/04/28 07:28:14;;;;;;;23.45;13.20;;;;;;;;;;5073326;28;20248;-68
2022/04/28 07:30:43;;;;;;;20.30;12.18;;;;;;;;;;5073296;28;20198;-68
2022/04/28 07:33:11;;;;;;;19.25;11.75;;;;;;;;;;5073412;28;20608;-68
2022/04/28 07:35:38;;;;;;;23.20;10.95;;;;;;;;;;5073534;28;20205;-69
2022/04/28 07:38:06;;;;;;;19.33;11.15;;;;;;;;;;5073338;28;20237;-69
2022/04/28 07:40:34;;;;;;;22.10;11.32;;;;;;;;;;5072956;28;20657;-68
2022/04/28 07:43:01;;;;;;;25.63;12.25;;;;;;;;;;5073034;28;20201;-68
2022/04/28 07:45:28;;;;;;;14.13;10.18;;;;;;;;;;5072813;28;20290;-68
2022/04/28 07:47:57;;;;;;;15.50;11.45;;;;;;;;;;5073088;28;20288;-68
2022/04/28 07:50:24;;;;;;;20.92;13.23;;;;;;;;;;5076152;28;20625;-68
2022/04/28 07:52:52;;;;;;;16.02;11.80;;;;;;;;;;5076437;28;20197;-68
2022/04/28 07:55:19;;;;;;;21.42;13.38;;;;;;;;;;5076538;28;20667;-68
2022/04/28 07:57:46;;;;;;;26.45;12.77;;;;;;;;;;5076249;28;20221;-68
2022/04/28 08:00:15;;;;;;;17.38;11.07;;;;;;;;;;5076396;28;20204;-68
2022/04/28 08:02:42;;;;;;;18.00;11.05;;;;;;;;;;5076588;28;20221;-68
2022/04/28 08:05:11;;;;;;;18.20;11.88;;;;;;;;;;5076814;28;20568;-68
2022/04/28 08:07:38;;;;;;;16.88;10.68;;;;;;;;;;5077222;28;20238;-68
2022/04/28 08:10:06;;;;;;;18.92;10.70;;;;;;;;;;5076521;28;20196;-69
2022/04/28 08:12:34;;;;;;;19.63;12.43;;;;;;;;;;5076765;28;20287;-69
2022/04/28 08:15:01;;;;;;;13.13;11.48;;;;;;;;;;5076507;28;20218;-69
2022/04/28 08:17:28;;;;;;;21.13;11.40;;;;;;;;;;5075938;28;20240;-68
2022/04/28 08:19:55;;;;;;;20.75;12.55;;;;;;;;;;5075949;28;20199;-68
2022/04/28 08:22:24;;;;;;;18.52;10.85;;;;;;;;;;5076007;28;20285;-68
2022/04/28 08:24:51;;;;;;;16.65;11.05;;;;;;;;;;5077026;28;20200;-68
2022/04/28 08:27:21;;;;;;;15.00;11.57;;;;;;;;;;5076277;28;20200;-69
2022/04/28 08:29:48;;;;;;;24.85;12.20;;;;;;;;;;5076157;28;20194;-68
2022/04/28 08:32:15;;;;;;;25.13;11.85;;;;;;;;;;5076546;28;20285;-69
2022/04/28 08:34:43;;;;;;;19.73;11.35;;;;;;;;;;5076104;28;20203;-68
2022/04/28 08:37:10;;;;;;;18.63;11.77;;;;;;;;;;5075613;28;20237;-68
2022/04/28 08:39:38;;;;;;;14.02;10.63;;;;;;;;;;5076814;28;20194;-68
2022/04/28 08:42:06;;;;;;;17.70;10.30;;;;;;;;;;5075648;28;20711;-69
2022/04/28 08:44:33;;;;;;;15.88;11.25;;;;;;;;;;5075884;28;20498;-68
2022/04/28 08:47:00;;;;;;;21.60;10.93;;;;;;;;;;5075786;28;20200;-68
2022/04/28 08:49:28;;;;;;;18.65;9.70;;;;;;;;;;5075547;28;20204;-69
2022/04/28 08:51:57;;;;;;;19.27;10.52;;;;;;;;;;5075728;28;20243;-69
2022/04/28 08:54:25;;;;;;;16.02;10.13;;;;;;;;;;5075603;28;20208;-68
2022/04/28 08:56:54;;;;;;;20.97;11.00;;;;;;;;;;5075850;28;20244;-68
2022/04/28 08:59:22;;;;;;;17.58;10.63;;;;;;;;;;5075620;28;20433;-69
2022/04/28 09:01:50;;;;;;;14.83;8.73;;;;;;;;;;5074582;28;20679;-69
2022/04/28 09:04:18;;;;;;;15.10;12.05;;;;;;;;;;5075578;28;20449;-68
2022/04/28 09:06:47;;;;;;;20.25;10.65;;;;;;;;;;5075518;28;20198;-68
2022/04/28 09:09:15;;;;;;;24.13;14.90;;;;;;;;;;5075490;28;20205;-68
2022/04/28 09:11:42;;;;;;;33.13;18.60;;;;;;;;;;5075519;28;20444;-68
2022/04/28 09:14:12;;;;;;;16.40;10.93;;;;;;;;;;5075381;28;20451;-68
2022/04/28 09:16:45;;;;;;;41.05;19.88;;;;;;;;;;5075154;28;20520;-68
2022/04/28 09:19:14;;;;;;;17.37;11.73;;;;;;;;;;5075217;28;20194;-68
2022/04/28 09:21:41;;;;;;;21.23;10.50;;;;;;;;;;5075181;28;20508;-68
2022/04/28 09:24:10;;;;;;;20.17;10.20;;;;;;;;;;5074718;28;20527;-68
2022/04/28 09:26:38;;;;;;;18.50;10.43;;;;;;;;;;5075162;28;20441;-69
2022/04/28 09:29:06;;;;;;;17.00;10.73;;;;;;;;;;5074876;28;20479;-68
2022/04/28 09:31:38;;;;;;;14.50;10.50;;;;;;;;;;5075081;28;20523;-69
2022/04/28 09:34:07;;;;;;;13.03;10.13;;;;;;;;;;5074860;28;20478;-69
2022/04/28 09:36:34;;;;;;;16.97;10.00;;;;;;;;;;5074447;28;20445;-68
2022/04/28 09:39:01;;;;;;;13.67;10.20;;;;;;;;;;5074382;28;20579;-69
2022/04/28 09:44:14;;;;;;;13.13;9.80;;;;;;;;;;5074474;28;20403;-69
2022/04/28 09:46:43;;;;;;;17.77;10.20;;;;;;;;;;5075134;28;20795;-70
2022/04/28 09:49:11;;;;;;;14.50;10.10;;;;;;;;;;5074588;28;20532;-69
2022/04/28 09:51:39;;;;;;;16.10;9.90;;;;;;;;;;5074293;28;20476;-69
2022/04/28 09:54:08;;;;;;;13.23;10.70;;;;;;;;;;5074525;28;20544;-68
2022/04/28 09:56:35;;;;;;;19.40;9.87;;;;;;;;;;5074294;28;20464;-69
2022/04/28 09:59:05;;;;;;;13.50;9.50;;;;;;;;;;5074300;28;20526;-69
2022/04/28 10:01:32;;;;;;;17.30;9.53;;;;;;;;;;5074685;28;20977;-69
2022/04/28 10:04:01;;;;;;;16.33;10.23;;;;;;;;;;5074005;28;20946;-69
2022/04/28 10:06:34;;;;;;;15.73;8.87;;;;;;;;;;5074223;28;20527;-69
2022/04/28 10:09:03;;;;;;;12.40;9.73;;;;;;;;;;5074040;28;20413;-69
2022/04/28 10:11:31;;;;;;;11.33;9.07;;;;;;;;;;5074413;28;20547;-69
2022/04/28 10:13:59;;;;;;;16.60;9.53;;;;;;;;;;5073877;28;20956;-68
2022/04/28 10:16:27;;;;;;;16.03;10.50;;;;;;;;;;5074061;28;20952;-69
2022/04/28 10:18:56;;;;;;;16.50;9.90;;;;;;;;;;5073963;28;20476;-70
2022/04/28 10:21:27;;;;;;;10.80;8.63;;;;;;;;;;5074114;28;20487;-69
2022/04/28 10:32:38;;;;;;;16.57;10.47;;;;;;;;;;5073891;28;20428;-69
2022/04/28 10:35:07;;;;;;;15.60;9.90;;;;;;;;;;5073268;28;20451;-69
2022/04/28 10:37:36;;;;;;;14.73;9.53;;;;;;;;;;5074081;28;20510;-69
2022/04/28 10:40:04;;;;;;;13.70;9.67;;;;;;;;;;5073804;28;20807;-69
2022/04/28 10:42:50;;;;;;;10.57;8.63;;;;;;;;;;5073758;28;20483;-69
2022/04/28 10:45:20;;;;;;;16.20;8.60;;;;;;;;;;5053589;28;20442;-68
2022/04/28 10:47:47;;;;;;;13.80;9.83;;;;;;;;;;5053301;28;20445;-68
2022/04/28 10:50:22;;;;;;;17.00;8.50;;;;;;;;;;5053539;28;20446;-68
2022/04/28 10:52:56;;;;;;;12.10;8.87;;;;;;;;;;5053389;28;20429;-68
2022/04/28 10:55:24;;;;;;;15.73;8.73;;;;;;;;;;5053735;28;20436;-68
2022/04/28 10:57:51;;;;;;;11.83;8.77;;;;;;;;;;5053296;28;20522;-68
2022/04/28 11:00:34;;;;;;;10.27;9.10;;;;;;;;;;5053113;28;20477;-68
2022/04/28 11:03:02;;;;;;;15.07;9.00;;;;;;;;;;5053837;28;20441;-67
2022/04/28 11:05:31;;;;;;;17.30;9.97;;;;;;;;;;5053330;28;20467;-69
2022/04/28 11:08:01;;;;;;;20.30;9.80;;;;;;;;;;5053121;28;20991;-68
2022/04/28 11:10:28;;;;;;;13.93;9.43;;;;;;;;;;5053357;28;20449;-67
2022/04/28 11:12:56;;;;;;;15.63;9.13;;;;;;;;;;5053502;28;20469;-68
2022/04/28 11:15:27;;;;;;;26.00;10.73;;;;;;;;;;5052966;28;20536;-68
2022/04/28 11:17:54;;;;;;;9.93;8.10;;;;;;;;;;5052991;28;20465;-69
2022/04/28 11:20:21;;;;;;;12.23;8.43;;;;;;;;;;5052940;28;20453;-68
2022/04/28 11:22:52;;;;;;;10.30;8.20;;;;;;;;;;5053158;28;20449;-68
2022/04/28 11:25:22;;;;;;;13.37;8.70;;;;;;;;;;5056650;28;20430;-69
2022/04/28 11:27:51;;;;;;;15.30;9.40;;;;;;;;;;5057860;28;20444;-68
2022/04/28 11:30:19;;;;;;;15.70;9.47;;;;;;;;;;5057116;28;20934;-68
2022/04/28 11:32:47;;;;;;;17.27;9.50;;;;;;;;;;5057310;28;20455;-68
2022/04/28 11:35:14;;;;;;;11.37;8.43;;;;;;;;;;5057337;28;20533;-65
2022/04/28 11:37:41;;;;;;;15.43;8.17;;;;;;;;;;5056975;28;20492;-69
2022/04/28 11:40:13;;;;;;;9.80;7.73;;;;;;;;;;5056741;28;20443;-76
2022/04/28 11:42:42;;;;;;;17.43;10.00;;;;;;;;;;5057277;28;20926;-75
2022/04/28 11:45:10;;;;;;;12.23;8.80;;;;;;;;;;5056913;28;20438;-75
2022/04/28 11:47:39;;;;;;;12.43;9.53;;;;;;;;;;5057028;28;20441;-74
2022/04/28 11:50:07;;;;;;;16.20;12.03;;;;;;;;;;5056619;28;20442;-74
2022/04/28 11:52:34;;;;;;;15.03;10.33;;;;;;;;;;5056441;28;20532;-75
2022/04/28 11:55:03;;;;;;;14.53;9.67;;;;;;;;;;5056838;28;20445;-75
2022/04/28 11:57:30;;;;;;;11.00;8.90;;;;;;;;;;5054436;28;20474;-75
2022/04/28 11:59:59;;;;;;;12.17;9.70;;;;;;;;;;5056360;28;20448;-75
2022/04/28 12:02:28;;;;;;;13.00;10.10;;;;;;;;;;5056162;28;20477;-76
2022/04/28 12:04:55;;;;;;;19.50;10.50;;;;;;;;;;5056034;28;20447;-75
2022/04/28 12:07:23;;;;;;;15.03;8.93;;;;;;;;;;5056752;28;20460;-74
2022/04/28 12:15:24;;;;;;;10.90;9.80;;;;;;;;;;5056064;28;20460;-75
2022/04/28 12:20:52;;;;;;;20.80;15.87;;;;;;;;;;5056112;28;20401;-75
2022/04/28 12:23:29;;;;;;;11.63;9.13;;;;;;;;;;5055708;28;20522;-74
2022/04/28 12:25:58;;;;;;;11.60;8.40;;;;;;;;;;5056251;28;20478;-74
2022/04/28 12:28:30;;;;;;;12.10;8.03;;;;;;;;;;5055719;28;21023;-74
2022/04/28 12:30:59;;;;;;;14.13;8.60;;;;;;;;;;5056120;28;20485;-75
2022/04/28 12:33:27;;;;;;;14.53;8.10;;;;;;;;;;5055690;28;20955;-75
2022/04/28 12:35:58;;;;;;;8.13;7.23;;;;;;;;;;5054736;28;20447;-75
2022/04/28 12:38:27;;;;;;;12.70;9.00;;;;;;;;;;5055904;28;20486;-75
2022/04/28 12:40:54;;;;;;;13.13;9.20;;;;;;;;;;5055735;28;20442;-74
2022/04/28 12:43:38;;;;;;;9.33;8.07;;;;;;;;;;5055450;28;20508;-74
2022/04/28 12:46:06;;;;;;;14.43;9.50;;;;;;;;;;5055385;28;20443;-74
2022/04/28 12:48:35;;;;;;;27.00;16.03;;;;;;;;;;5055779;28;20994;-74
2022/04/28 12:51:15;;;;;;;16.10;8.87;;;;;;;;;;5055461;28;21014;-74
2022/04/28 12:53:44;;;;;;;13.67;7.47;;;;;;;;;;5056219;28;20508;-74
2022/04/28 12:56:13;;;;;;;10.40;7.30;;;;;;;;;;5055485;28;20475;-74
2022/04/28 12:58:41;;;;;;;12.60;7.53;;;;;;;;;;5055898;28;20509;-75
2022/04/28 13:01:14;;;;;;;11.20;7.47;;;;;;;;;;5055265;28;20452;-74
2022/04/28 13:03:42;;;;;;;10.37;7.70;;;;;;;;;;5055593;28;20431;-75
2022/04/28 13:06:10;;;;;;;8.77;7.37;;;;;;;;;;5055710;28;20802;-74
2022/04/28 13:08:37;;;;;;;8.27;6.80;;;;;;;;;;5055118;28;20494;-74
2022/04/28 13:11:05;;;;;;;9.63;6.77;;;;;;;;;;5055888;28;20530;-74
2022/04/28 13:13:32;;;;;;;8.07;6.83;;;;;;;;;;5054799;28;20442;-74
2022/04/28 13:15:59;;;;;;;10.23;7.03;;;;;;;;;;5055134;28;20783;-74
2022/04/28 13:18:27;;;;;;;10.43;7.50;;;;;;;;;;5054768;28;20920;-74
2022/04/28 13:20:55;;;;;;;16.60;7.07;;;;;;;;;;5055067;28;20443;-74
2022/04/28 13:23:22;;;;;;;12.20;6.43;;;;;;;;;;5055238;28;20480;-74
2022/04/28 13:25:49;;;;;;;9.40;7.20;;;;;;;;;;5055028;28;20457;-75
2022/04/28 13:28:17;;;;;;;15.10;6.23;;;;;;;;;;5054747;28;21005;-75
2022/04/28 13:30:44;;;;;;;12.53;6.80;;;;;;;;;;5054996;28;20518;-74
2022/04/28 13:33:11;;;;;;;7.90;6.60;;;;;;;;;;5054838;28;20446;-75
2022/04/28 13:35:40;;;;;;;12.47;6.30;;;;;;;;;;5055407;28;20446;-75
2022/04/28 13:38:09;;;;;;;12.80;6.47;;;;;;;;;;5054229;28;20477;-75
2022/04/28 13:40:36;;;;;;;13.70;6.90;;;;;;;;;;5054350;28;20483;-76
2022/04/28 13:43:03;;;;;;;7.93;6.37;;;;;;;;;;5054385;28;20438;-75
2022/04/28 13:45:31;;;;;;;11.17;5.87;;;;;;;;;;5054644;28;20445;-75
2022/04/28 13:47:58;;;;;;;12.90;6.83;;;;;;;;;;5053853;28;20529;-75
2022/04/28 13:50:25;;;;;;;11.90;6.13;;;;;;;;;;5054332;28;20447;-75
2022/04/28 13:52:54;;;;;;;9.87;6.60;;;;;;;;;;5054407;28;20454;-75
2022/04/28 13:55:21;;;;;;;10.77;6.37;;;;;;;;;;5054446;28;20448;-75
2022/04/28 13:57:49;;;;;;;9.53;6.30;;;;;;;;;;5053971;28;20448;-75
2022/04/28 14:00:17;;;;;;;6.60;6.10;;;;;;;;;;5054201;28;20481;-75
2022/04/28 14:02:44;;;;;;;9.23;6.97;;;;;;;;;;5053864;28;20453;-75
2022/04/28 14:05:13;;;;;;;11.10;5.80;;;;;;;;;;5054268;28;20440;-75
2022/04/28 14:07:40;;;;;;;11.10;6.20;;;;;;;;;;5053983;28;20549;-76
2022/04/28 14:10:10;;;;;;;10.30;6.10;;;;;;;;;;5053668;28;20460;-75
2022/04/28 14:12:38;;;;;;;11.23;6.57;;;;;;;;;;5053569;28;20449;-74
2022/04/28 14:15:07;;;;;;;8.53;7.00;;;;;;;;;;5054039;28;20491;-75
2022/04/28 14:17:34;;;;;;;12.20;7.63;;;;;;;;;;5053952;28;20496;-75
2022/04/28 14:20:02;;;;;;;10.20;8.10;;;;;;;;;;5054018;28;20474;-74
2022/04/28 14:22:29;;;;;;;11.27;7.00;;;;;;;;;;5053886;28;20437;-74
2022/04/28 14:24:56;;;;;;;9.37;7.90;;;;;;;;;;5053945;28;20443;-76
2022/04/28 14:27:25;;;;;;;10.00;7.93;;;;;;;;;;5053303;28;20446;-75
2022/04/28 14:29:53;;;;;;;16.10;7.27;;;;;;;;;;5053554;28;20451;-75
2022/04/28 14:32:20;;;;;;;8.47;7.50;;;;;;;;;;5053501;28;20532;-75
2022/04/28 14:34:48;;;;;;;15.53;8.10;;;;;;;;;;5053611;28;20782;-75
2022/04/28 14:37:15;;;;;;;12.50;8.40;;;;;;;;;;5053236;28;20958;-75
2022/04/28 14:39:43;;;;;;;11.73;6.90;;;;;;;;;;5054213;28;20819;-75
2022/04/28 14:42:10;;;;;;;11.33;7.13;;;;;;;;;;5053509;28;20521;-75
2022/04/28 14:44:39;;;;;;;12.07;7.93;;;;;;;;;;5053673;28;20547;-74
2022/04/28 14:47:06;;;;;;;11.83;7.80;;;;;;;;;;5053418;28;20481;-74
2022/04/28 14:52:22;;;;;;;9.30;7.90;;;;;;;;;;5053049;28;20403;-76
2022/04/28 14:54:53;;;;;;;12.20;7.60;;;;;;;;;;5052554;28;20444;-75
2022/04/28 14:57:20;;;;;;;9.53;7.30;;;;;;;;;;5053000;28;20526;-75
2022/04/28 14:59:48;;;;;;;14.90;8.87;;;;;;;;;;5052406;28;21013;-75
2022/04/28 15:02:16;;;;;;;15.97;8.63;;;;;;;;;;5052991;28;20449;-75
2022/04/28 15:04:45;;;;;;;10.00;8.53;;;;;;;;;;5053296;28;20511;-75
2022/04/28 15:07:13;;;;;;;9.50;7.63;;;;;;;;;;5053066;28;20487;-75
2022/04/28 15:09:40;;;;;;;12.27;9.03;;;;;;;;;;5052885;28;20454;-76